createdAt,value
2022-09-07T00:04:00.975Z,72.67
2022-09-07T00:09:04.626Z,73.07
2022-09-07T00:14:08.073Z,73.71
2022-09-07T00:19:11.325Z,73.87
2022-09-07T00:24:14.994Z,73.28
2022-09-07T00:29:18.020Z,73.50
2022-09-07T00:34:21.070Z,73.36
2022-09-07T00:39:24.211Z,73.96
2022-09-07T00:44:42.714Z,74.08
2022-09-07T00:49:51.970Z,74.37
2022-09-07T00:55:03.471Z,74.74
2022-09-07T01:00:08.200Z,74.71
2022-09-07T01:05:31.985Z,74.68
2022-09-07T01:10:37.784Z,75.14
2022-09-07T01:15:53.049Z,74.79
2022-09-07T01:21:13.785Z,75.14
2022-09-07T01:26:41.006Z,75.27
2022-09-07T01:32:14.118Z,76.13
2022-09-07T01:37:33.266Z,75.65
2022-09-07T01:42:54.319Z,76.33
2022-09-07T01:48:04.037Z,76.91
2022-09-07T01:53:16.902Z,76.58
2022-09-07T01:58:48.877Z,76.58
2022-09-07T02:04:04.080Z,76.28
2022-09-07T02:09:29.027Z,76.53
2022-09-07T02:14:43.566Z,76.70
2022-09-07T02:20:04.477Z,77.24
2022-09-07T02:25:10.788Z,76.99
2022-09-07T02:30:15.935Z,76.92
2022-09-07T02:35:19.079Z,76.61
2022-09-07T02:40:22.107Z,76.94
2022-09-07T02:45:25.303Z,77.43
2022-09-07T02:50:47.322Z,79.19
2022-09-07T02:56:03.342Z,80.00
2022-09-07T03:01:15.514Z,79.07
2022-09-07T03:07:04.333Z,78.72
2022-09-07T03:12:07.933Z,79.18
2022-09-07T03:17:13.662Z,79.53
2022-09-07T03:22:16.633Z,79.88
2022-09-07T03:27:19.677Z,79.71
2022-09-07T03:32:22.700Z,78.96
2022-09-07T03:37:25.931Z,79.25
2022-09-07T03:42:28.934Z,79.57
2022-09-07T03:47:35.605Z,79.11
2022-09-07T03:52:38.904Z,79.36
2022-09-07T03:57:43.735Z,79.28
2022-09-07T04:02:46.876Z,79.00
2022-09-07T04:07:50.029Z,78.82
2022-09-07T04:12:53.358Z,79.00
2022-09-07T04:17:56.685Z,79.13
2022-09-07T04:22:59.785Z,79.70
2022-09-07T04:28:04.121Z,80.39
2022-09-07T04:33:07.317Z,79.85
2022-09-07T04:38:15.979Z,79.42
2022-09-07T04:43:19.058Z,79.39
2022-09-07T04:48:22.382Z,79.75
2022-09-07T04:53:25.393Z,80.62
2022-09-07T04:58:28.842Z,80.22
2022-09-07T05:03:36.246Z,80.31
2022-09-07T05:08:48.316Z,80.50
2022-09-07T05:13:51.390Z,80.68
2022-09-07T05:18:59.095Z,80.00
2022-09-07T05:24:02.899Z,79.85
2022-09-07T05:34:31.306Z,80.44
2022-09-07T05:39:34.887Z,80.36
2022-09-07T05:44:45.735Z,80.45
2022-09-07T05:49:51.060Z,80.11
2022-09-07T05:55:07.498Z,80.14
2022-09-07T06:00:16.500Z,79.63
2022-09-07T06:05:19.727Z,79.27
2022-09-07T06:15:46.307Z,78.54
2022-09-07T06:20:49.619Z,78.27
2022-09-07T06:25:52.669Z,77.32
2022-09-07T06:31:05.006Z,76.79
2022-09-07T06:36:14.268Z,76.37
2022-09-07T06:47:03.961Z,75.44
2022-09-07T06:52:07.800Z,74.91
2022-09-07T06:57:10.951Z,74.24
2022-09-07T07:02:15.237Z,73.57
2022-09-07T07:07:18.545Z,72.82
2022-09-07T07:17:24.103Z,71.99
2022-09-07T07:22:46.140Z,71.11
2022-09-07T07:27:50.766Z,69.50
2022-09-07T07:32:58.022Z,68.52
2022-09-07T07:43:24.860Z,67.13
2022-09-07T07:48:29.105Z,66.89
2022-09-07T07:53:43.673Z,66.16
2022-09-07T07:58:48.577Z,66.22
2022-09-07T08:03:52.133Z,65.60
2022-09-07T08:08:56.161Z,64.89
2022-09-07T08:14:00.393Z,64.86
2022-09-07T08:19:03.957Z,63.28
2022-09-07T08:24:07.220Z,62.44
2022-09-07T08:29:10.298Z,62.46
2022-09-07T08:34:13.274Z,61.38
2022-09-07T08:39:16.505Z,61.15
2022-09-07T08:44:35.435Z,60.22
2022-09-07T08:49:49.033Z,58.58
2022-09-07T08:55:31.357Z,57.88
2022-09-07T09:00:36.288Z,56.58
2022-09-07T09:05:53.907Z,56.40
2022-09-07T09:11:35.501Z,55.93
2022-09-07T09:16:51.173Z,55.13
2022-09-07T09:22:11.077Z,53.42
2022-09-07T09:27:15.489Z,53.12
2022-09-07T09:32:41.774Z,51.47
2022-09-07T09:37:45.368Z,52.19
2022-09-07T09:42:58.572Z,49.93
2022-09-07T09:48:08.682Z,48.80
2022-09-07T09:53:33.858Z,46.53
2022-09-07T10:04:34.962Z,44.65
2022-09-07T10:09:42.051Z,43.71
2022-09-07T10:14:47.987Z,44.17
2022-09-07T10:19:52.432Z,43.24
2022-09-07T10:24:55.881Z,43.07
2022-09-07T10:30:01.551Z,44.03
2022-09-07T10:35:20.812Z,44.39
2022-09-07T10:40:51.990Z,45.88
2022-09-07T10:46:07.368Z,45.47
2022-09-07T10:51:22.589Z,43.05
2022-09-07T10:56:40.487Z,42.26
2022-09-07T11:02:00.641Z,46.49
2022-09-07T11:07:21.542Z,44.40
2022-09-07T11:12:42.152Z,43.11
2022-09-07T11:18:00.524Z,42.21
2022-09-07T11:23:40.935Z,43.41
2022-09-07T11:34:41.276Z,41.80
2022-09-07T11:39:53.861Z,43.97
2022-09-07T11:45:15.962Z,44.15
2022-09-07T11:50:23.686Z,42.22
2022-09-07T11:55:34.037Z,40.61
2022-09-07T12:01:08.908Z,37.22
2022-09-07T12:06:36.293Z,41.88
2022-09-07T12:12:13.579Z,39.99
2022-09-07T12:18:16.878Z,38.81
2022-09-07T12:23:31.587Z,39.41
2022-09-07T12:28:34.613Z,41.72
2022-09-07T12:33:41.386Z,38.72
2022-09-07T12:39:06.430Z,39.74
2022-09-07T12:44:18.592Z,38.83
2022-09-07T12:49:39.952Z,34.92
2022-09-07T12:55:28.274Z,37.43
2022-09-07T13:00:49.625Z,38.30
2022-09-07T13:06:13.818Z,34.52
2022-09-07T13:11:33.122Z,33.37
2022-09-07T13:22:31.266Z,36.87
2022-09-07T13:28:14.080Z,34.07
2022-09-07T13:33:29.013Z,32.76
2022-09-07T13:38:37.036Z,35.13
2022-09-07T13:43:46.077Z,33.72
2022-09-07T13:49:06.805Z,35.38
2022-09-07T13:54:45.623Z,36.24
2022-09-07T13:59:52.230Z,35.08
2022-09-07T14:05:00.570Z,34.88
2022-09-07T14:10:23.815Z,34.88
2022-09-07T14:15:42.921Z,34.45
2022-09-07T14:20:51.567Z,33.72
2022-09-07T14:26:17.286Z,32.65
2022-09-07T14:31:23.977Z,31.60
2022-09-07T14:36:45.883Z,32.88
2022-09-07T14:41:51.166Z,32.65
2022-09-07T14:46:57.000Z,34.01
2022-09-07T14:52:02.124Z,33.96
2022-09-07T14:57:30.725Z,34.08
2022-09-07T15:02:37.358Z,35.50
2022-09-07T15:07:53.667Z,36.74
2022-09-07T15:13:02.558Z,37.76
2022-09-07T15:18:55.864Z,39.19
2022-09-07T15:24:01.488Z,39.60
2022-09-07T15:29:11.066Z,40.94
2022-09-07T15:34:18.555Z,41.51
2022-09-07T15:39:27.678Z,41.94
2022-09-07T15:44:32.006Z,41.51
2022-09-07T15:49:35.198Z,40.62
2022-09-07T15:54:39.803Z,40.76
2022-09-07T15:59:43.417Z,40.81
2022-09-07T16:04:46.734Z,41.79
2022-09-07T16:09:52.532Z,41.88
2022-09-07T16:14:56.827Z,43.30
2022-09-07T16:20:02.132Z,44.40
2022-09-07T16:25:07.346Z,44.76
2022-09-07T16:30:11.482Z,45.38
2022-09-07T16:35:14.893Z,46.19
2022-09-07T16:40:18.389Z,46.88
2022-09-07T16:50:58.731Z,49.37
2022-09-07T16:56:11.365Z,50.01
2022-09-07T17:01:18.455Z,50.46
2022-09-07T17:06:25.099Z,50.92
2022-09-07T17:11:35.928Z,51.97
2022-09-07T17:16:41.499Z,53.15
2022-09-07T17:21:46.340Z,54.67
2022-09-07T17:26:49.749Z,56.14
2022-09-07T17:37:16.131Z,55.31
2022-09-07T17:42:19.478Z,54.61
2022-09-07T17:47:22.954Z,55.49
2022-09-07T17:52:28.668Z,56.40
2022-09-07T17:57:33.264Z,58.75
2022-09-07T18:02:37.485Z,60.22
2022-09-07T18:07:40.706Z,59.57
2022-09-07T18:12:43.816Z,60.27
2022-09-07T18:17:46.902Z,61.29
2022-09-07T18:22:51.123Z,62.10
2022-09-07T18:33:17.639Z,62.58
2022-09-07T18:38:20.762Z,60.61
2022-09-07T18:43:24.058Z,60.44
2022-09-07T18:48:27.160Z,60.01
2022-09-07T18:53:30.737Z,60.41
2022-09-07T18:58:35.221Z,61.35
2022-09-07T19:03:38.537Z,61.21
2022-09-07T19:08:45.823Z,61.83
2022-09-07T19:13:49.047Z,62.04
2022-09-07T19:18:59.604Z,62.16
2022-09-07T19:24:32.032Z,61.12
2022-09-07T19:29:35.393Z,60.78
2022-09-07T19:34:42.680Z,61.09
2022-09-07T19:39:46.227Z,61.74
2022-09-07T19:44:50.543Z,62.10
2022-09-07T19:49:53.894Z,62.87
2022-09-07T19:54:57.441Z,63.02
2022-09-07T20:00:00.617Z,63.82
2022-09-07T20:05:04.658Z,65.00
2022-09-07T20:10:09.070Z,65.30
2022-09-07T20:15:12.294Z,65.52
2022-09-07T20:20:16.066Z,65.84
2022-09-07T20:25:19.168Z,65.97
2022-09-07T20:30:24.453Z,66.09
2022-09-07T20:35:27.582Z,66.69
2022-09-07T20:40:30.722Z,66.88
2022-09-07T20:45:35.664Z,66.97
2022-09-07T20:50:38.718Z,66.85
2022-09-07T20:55:41.702Z,67.22
2022-09-07T21:00:51.809Z,67.37
2022-09-07T21:05:55.299Z,67.32
2022-09-07T21:10:58.291Z,67.54
2022-09-07T21:16:09.099Z,67.30
2022-09-07T21:21:20.828Z,67.71
2022-09-07T21:26:25.719Z,67.82
2022-09-07T21:31:31.533Z,68.11
2022-09-07T21:36:34.765Z,68.46
2022-09-07T21:41:37.824Z,68.79
2022-09-07T21:46:43.009Z,69.08
2022-09-07T21:51:46.117Z,69.63
2022-09-07T21:56:49.420Z,69.61
2022-09-07T22:01:52.429Z,69.53
2022-09-07T22:06:55.793Z,69.46
2022-09-07T22:12:00.265Z,69.82
2022-09-07T22:17:03.356Z,69.53
2022-09-07T22:22:06.451Z,69.99
2022-09-07T22:27:09.506Z,70.72
2022-09-07T22:32:12.492Z,70.94
2022-09-07T22:37:15.556Z,70.82
2022-09-07T22:42:18.567Z,70.92
2022-09-07T22:47:21.557Z,70.39
2022-09-07T22:52:24.848Z,70.39
2022-09-07T22:57:27.867Z,71.08
2022-09-07T23:02:30.870Z,70.79
2022-09-07T23:07:33.870Z,70.08
2022-09-07T23:12:36.843Z,70.29
2022-09-07T23:17:39.858Z,70.65
2022-09-07T23:22:45.150Z,71.40
2022-09-07T23:27:48.814Z,70.79
2022-09-07T23:32:51.903Z,70.97
2022-09-07T23:37:55.233Z,71.08
2022-09-07T23:42:58.691Z,71.07
2022-09-07T23:48:02.280Z,70.75
2022-09-07T23:53:05.257Z,70.81
2022-09-07T23:58:09.528Z,71.46
